Latest Weather Observations for Green Cape

IDN60801

Issued at 9:02 pm EDT Friday 16 November 2018 (issued every 10 minutes, with the page automatically refreshed every 10 minutes)

About weather observations | Map of weather stations | Latest weather observations for NSW | Other Formats
Station Details ID: 069137 Name: GREEN CAPE AWS Lat: -37.26 Lon: 150.05 Height: 19.4 m
Data from the previous 72 hours. | See also: Recent months at Green Cape
Date/Time
EDT
Temp
°C
App
Temp
°C
Dew
Point
°C
Rel
Hum
%
Delta-T
°C
Wind Press
QNH
hPa
Press
MSL
hPa
Rain since
9am
mm
Dir  Spd
km/h
Gust
km/h
Spd
kts
Gust
kts
16/09:00pm 17.4 15.1 13.1 76 2.4 NNE 17 20 9 11 1019.3 1019.3 0.0
16/08:30pm 17.5 15.5 12.8 74 2.6 NNE 15 20 8 11 1019.4 1019.4 0.0
16/08:00pm 17.9 15.6 13.0 73 2.7 NNE 17 19 9 10 1019.0 1019.0 0.0
16/07:30pm 18.1 15.3 12.5 70 3.1 NNE 19 20 10 11 1018.9 1018.9 0.0
16/07:00pm 18.4 15.5 12.4 68 3.3 NNE 19 22 10 12 1018.5 1018.5 0.0
16/06:30pm 18.8 15.7 12.3 66 3.6 NNE 20 22 11 12 1018.4 1018.4 0.0
16/06:00pm 19.2 16.1 12.2 64 3.9 NNE 20 22 11 12 1018.3 1018.3 0.0
16/05:30pm 20.2 16.9 12.9 63 4.1 NNE 22 26 12 14 1018.2 1018.2 0.0
16/05:00pm 20.7 17.4 12.7 60 4.5 NNE 22 24 12 13 1018.3 1018.3 0.0
16/04:30pm 20.7 17.3 12.4 59 4.7 NNE 22 24 12 13 1018.4 1018.4 0.0
16/04:00pm 21.0 18.1 12.9 60 4.6 NNE 20 24 11 13 1018.6 1018.6 0.0
16/03:30pm 19.1 15.5 13.1 68 3.4 NE 24 28 13 15 1018.7 1018.7 0.0
16/03:00pm 19.5 15.9 13.0 66 3.7 NE 24 32 13 17 1019.0 1019.0 0.0
16/02:30pm 18.8 14.8 11.9 64 3.8 NE 24 30 13 16 1019.5 1019.5 0.0
16/02:00pm 20.4 17.4 12.6 61 4.4 NE 20 24 11 13 1020.1 1020.1 0.0
16/01:30pm 21.6 18.5 13.5 60 4.7 NE 22 26 12 14 1020.4 1020.4 0.0
16/01:00pm 20.0 17.0 11.8 59 4.5 NE 19 20 10 11 1020.7 1020.7 0.0
16/12:30pm 20.5 17.7 12.5 60 4.5 NE 19 22 10 12 1021.0 1021.0 0.0
16/12:00pm 19.4 16.2 11.9 62 4.1 NE 20 22 11 12 1021.2 1021.2 0.0
16/11:30am 18.5 15.9 12.0 66 3.6 NE 17 20 9 11 1021.7 1021.7 0.0
16/11:00am 18.1 15.9 12.1 68 3.3 NE 15 19 8 10 1021.9 1021.9 0.0
16/10:30am 18.9 16.8 12.4 66 3.6 NE 15 17 8 9 1022.1 1022.1 0.0
16/10:00am 18.7 16.3 11.5 63 3.9 NE 15 20 8 11 1021.9 1021.9 0.0
16/09:30am 17.3 14.4 10.9 66 3.4 NE 17 20 9 11 1022.0 1022.0 0.0
16/09:00am 16.6 14.4 10.7 68 3.1 ENE 13 17 7 9 1022.2 1022.2 0.2
16/08:30am 16.3 15.2 10.8 70 2.9 ENE 7 11 4 6 1022.5 1022.5 0.2
16/08:00am 15.4 15.3 12.2 81 1.7 ESE 4 13 2 7 1022.4 1022.4 0.2
16/07:30am 14.3 13.2 11.8 85 1.3 W 9 11 5 6 1022.4 1022.4 0.2
16/07:00am 13.9 12.7 11.6 86 1.2 W 9 13 5 7 1022.5 1022.5 0.2
16/06:30am 14.2 12.3 11.7 85 1.3 W 13 17 7 9 1022.4 1022.4 0.2
16/06:00am 14.0 12.7 11.2 83 1.5 W 9 11 5 6 1022.5 1022.5 0.2
16/05:30am 13.5 10.5 10.5 82 1.6 W 17 24 9 13 1022.7 1022.7 0.2
16/05:00am 15.2 12.6 10.8 75 2.3 SSE 15 19 8 10 1022.2 1022.2 0.2
16/04:30am 15.2 12.2 11.8 80 1.8 SE 19 24 10 13 1021.9 1021.9 0.2
16/04:00am 15.0 11.9 11.6 80 1.8 SE 19 22 10 12 1022.4 1022.4 0.2
16/03:30am 14.3 12.5 12.2 87 1.1 SSW 13 19 7 10 1022.8 1022.8 0.2
16/03:00am 14.2 11.1 11.5 84 1.4 WSW 19 24 10 13 1023.1 1023.1 0.2
16/02:30am 14.5 11.4 11.7 83 1.5 WSW 19 26 10 14 1023.4 1023.4 0.2
16/02:00am 14.5 12.2 11.7 83 1.5 SW 15 19 8 10 1023.3 1023.3 0.2
16/01:30am 14.6 12.7 11.9 84 1.5 SSW 13 19 7 10 1023.3 1023.3 0.2
16/01:00am 13.8 10.8 10.8 82 1.6 W 17 20 9 11 1023.9 1023.9 0.2
16/12:30am 13.8 9.8 10.6 81 1.7 W 22 26 12 14 1024.2 1024.2 0.2
16/12:00am 14.0 9.6 10.4 79 1.9 W 24 30 13 16 1024.3 1024.3 0.2
 
Date/Time
EDT
Temp
°C
App
Temp
°C
Dew
Point
°C
Rel
Hum
%
Delta-T
°C
Wind Press
QNH
hPa
Press
MSL
hPa
Rain since
9am
mm
Dir  Spd
km/h
Gust
km/h
Spd
kts
Gust
kts
15/11:30pm 14.0 9.6 10.4 79 1.9 W 24 30 13 16 1024.5 1024.5 0.2
15/11:00pm 14.2 9.4 10.4 78 2.0 W 26 28 14 15 1024.6 1024.6 0.2
15/10:30pm 14.3 9.5 10.3 77 2.1 W 26 30 14 16 1024.6 1024.6 0.2
15/10:00pm 14.6 10.6 10.4 76 2.2 W 22 26 12 14 1024.6 1024.6 0.2
15/09:30pm 15.1 11.7 11.3 78 2.0 WSW 20 24 11 13 1024.4 1024.4 0.2
15/09:00pm 15.3 12.0 11.5 78 2.0 WSW 20 26 11 14 1024.3 1024.3 0.2
15/08:30pm 15.2 10.8 11.6 79 1.9 SW 26 30 14 16 1023.7 1023.7 0.2
15/08:00pm 15.3 10.7 11.1 76 2.2 SSW 26 33 14 18 1023.7 1023.7 0.2
15/07:30pm 15.2 8.7 10.2 72 2.6 SSW 35 41 19 22 1023.2 1023.2 0.2
15/07:00pm 15.4 8.8 10.0 70 2.8 SSW 35 43 19 23 1022.8 1022.8 0.2
15/06:30pm 15.5 7.6 9.4 67 3.2 SSW 41 46 22 25 1022.2 1022.2 0.2
15/06:00pm 15.8 8.0 9.9 68 3.1 SSW 41 50 22 27 1022.0 1022.0 0.2
15/05:30pm 15.9 8.2 10.0 68 3.1 SSW 41 48 22 26 1021.7 1021.7 0.2
15/05:00pm 15.8 7.8 10.6 71 2.7 S 43 50 23 27 1021.4 1021.4 0.2
15/04:30pm 16.4 7.3 11.1 71 2.8 S 50 57 27 31 1020.8 1020.8 0.2
15/04:00pm 16.1 5.6 10.4 69 3.0 S 56 63 30 34 1020.7 1020.7 0.2
15/03:30pm 16.3 5.9 10.6 69 3.0 S 56 63 30 34 1020.4 1020.4 0.2
15/03:00pm 16.6 6.4 11.3 71 2.9 S 56 61 30 33 1020.7 1020.7 0.2
15/02:30pm 16.8 7.8 11.7 72 2.8 S 50 57 27 31 1020.7 1020.7 0.2
15/02:00pm 16.8 8.6 11.7 72 2.8 S 46 54 25 29 1020.8 1020.8 0.2
15/01:30pm 16.7 8.4 11.4 71 2.9 S 46 54 25 29 1020.7 1020.7 0.2
15/01:00pm 16.8 9.4 11.1 69 3.1 SSW 41 48 22 26 1020.8 1020.8 0.2
15/12:30pm 16.9 7.3 10.7 67 3.3 SSW 52 59 28 32 1020.7 1020.7 0.2
15/12:00pm 16.9 9.0 11.6 71 2.9 SSW 44 50 24 27 1020.6 1020.6 0.2
15/11:30am 17.9 9.9 11.0 64 3.7 SSW 44 52 24 28 1020.7 1020.7 0.2
15/11:00am 17.4 12.2 11.7 69 3.1 SW 30 41 16 22 1020.9 1020.9 0.0
15/10:30am 17.1 11.0 11.8 71 2.9 SW 35 46 19 25 1020.7 1020.7 0.0
15/10:00am 16.4 9.6 11.8 74 2.5 SW 39 46 21 25 1020.5 1020.5 0.0
15/09:30am 16.0 9.7 12.2 78 2.1 SW 37 43 20 23 1020.4 1020.4 0.0
15/09:00am 15.0 8.0 12.5 85 1.4 SW 41 54 22 29 1020.5 1020.5 6.4
15/08:30am 15.5 9.7 12.8 84 1.5 SW 35 44 19 24 1019.7 1019.7 6.4
15/08:00am 15.5 9.7 12.6 83 1.6 SW 35 43 19 23 1019.4 1019.4 6.4
15/07:30am 15.3 10.4 12.6 84 1.5 WSW 30 37 16 20 1018.9 1018.9 6.4
15/07:00am 15.4 10.2 12.9 85 1.4 WSW 32 39 17 21 1018.5 1018.5 6.4
15/06:30am 15.2 10.8 12.9 86 1.3 WSW 28 32 15 17 1018.1 1018.1 6.4
15/06:00am 15.3 10.5 12.8 85 1.4 WSW 30 33 16 18 1017.7 1017.7 6.4
15/05:30am 15.1 10.3 13.0 87 1.2 SW 30 33 16 18 1017.0 1017.0 6.4
15/05:00am 14.9 10.2 13.3 90 0.9 SW 30 35 16 19 1016.8 1016.8 6.4
15/04:30am 14.9 10.0 13.8 93 0.6 SW 32 39 17 21 1016.5 1016.5 6.4
15/04:00am 14.9 8.7 13.9 94 0.6 SSW 39 44 21 24 1016.1 1016.1 6.4
15/03:30am 15.2 11.0 14.7 97 0.3 SW 30 39 16 21 1016.2 1016.2 6.4
15/03:00am 15.1 10.0 14.8 98 0.2 SSW 35 39 19 21 1016.0 1016.0 6.4
15/02:30am 15.2 10.2 15.0 99 0.1 SSW 35 43 19 23 1015.9 1015.9 6.4
15/02:00am 15.5 11.0 15.3 99 0.1 SSW 33 39 18 21 1016.1 1016.1 6.2
15/01:30am 15.8 10.6 15.6 99 0.1 SSW 37 41 20 22 1016.1 1016.1 6.2
15/01:00am 16.3 12.6 16.1 99 0.1 S 30 39 16 21 1016.0 1016.0 6.2
15/12:30am 16.7 15.7 16.5 99 0.1 SW 17 19 9 10 1016.4 1016.4 6.2
15/12:00am 16.7 17.6 16.5 99 0.1 W 7 11 4 6 1016.5 1016.5 6.2
 
Date/Time
EDT
Temp
°C
App
Temp
°C
Dew
Point
°C
Rel
Hum
%
Delta-T
°C
Wind Press
QNH
hPa
Press
MSL
hPa
Rain since
9am
mm
Dir  Spd
km/h
Gust
km/h
Spd
kts
Gust
kts
14/11:30pm 16.6 17.4 16.3 98 0.2 SW 7 11 4 6 1016.0 1016.0 6.2
14/11:00pm 16.7 17.1 16.4 98 0.2 WSW 9 11 5 6 1016.0 1016.0 6.2
14/10:30pm 16.8 17.7 16.5 98 0.2 SSW 7 9 4 5 1015.7 1015.7 6.2
14/10:00pm 16.9 17.9 16.4 97 0.3 WSW 6 6 3 3 1015.8 1015.8 6.2
14/09:30pm 16.9 19.1 16.4 97 0.3 CALM 0 0 0 0 1015.6 1015.6 6.2
14/09:00pm 17.0 18.4 16.5 97 0.3 SSE 4 6 2 3 1015.3 1015.3 6.2
14/08:30pm 17.0 17.4 16.4 96 0.4 SSE 9 13 5 7 1015.0 1015.0 6.2
14/08:00pm 16.9 17.7 16.3 96 0.4 SSE 7 9 4 5 1014.7 1014.7 6.2
14/07:30pm 17.2 18.0 16.4 95 0.5 SSE 7 9 4 5 1014.4 1014.4 6.2
14/07:00pm 18.0 19.4 17.4 96 0.4 SSE 6 7 3 4 1014.0 1014.0 6.2
14/06:30pm 18.4 20.0 17.9 97 0.3 S 6 7 3 4 1013.8 1013.8 6.2
14/06:00pm 18.9 21.2 18.6 98 0.2 SE 4 6 2 3 1013.7 1013.7 6.2
14/05:30pm 18.8 20.5 18.6 99 0.1 ESE 7 9 4 5 1013.4 1013.4 6.2
14/05:00pm 18.1 19.7 17.9 99 0.1 SE 6 7 3 4 1013.4 1013.4 6.2
14/04:30pm 18.2 19.9 18.0 99 0.1 SSE 6 6 3 3 1013.3 1013.3 6.2
14/04:00pm 17.6 18.8 17.4 99 0.1 SSE 7 7 4 4 1013.4 1013.4 6.2
14/03:30pm 17.4 18.5 17.2 99 0.1 SW 7 9 4 5 1013.7 1013.7 6.2
14/03:00pm 17.2 17.9 17.0 99 0.1 SW 9 11 5 6 1013.8 1013.8 6.2
14/02:30pm 17.2 18.8 17.0 99 0.1 WSW 4 6 2 3 1013.9 1013.9 6.2
14/02:00pm 17.3 19.7 17.1 99 0.1 CALM 0 0 0 0 1013.9 1013.9 6.0
14/01:30pm 17.6 20.2 17.4 99 0.1 CALM 0 0 0 0 1014.0 1014.0 5.8
14/01:00pm 17.5 20.0 17.3 99 0.1 CALM 0 0 0 0 1014.2 1014.2 4.6
14/12:30pm 17.5 19.6 17.3 99 0.1 W 2 4 1 2 1014.4 1014.4 4.0
14/12:00pm 17.4 19.1 17.2 99 0.1 W 4 4 2 2 1014.5 1014.5 3.0
14/11:30am 17.8 19.1 17.6 99 0.1 W 7 9 4 5 1014.9 1014.9 2.6
14/11:00am 17.7 19.0 17.5 99 0.1 W 7 9 4 5 1014.9 1014.9 1.6
14/10:30am 18.0 20.3 17.8 99 0.1 WNW 2 4 1 2 1014.9 1014.9 1.4
14/10:00am 17.8 19.1 17.6 99 0.1 N 7 11 4 6 1014.7 1014.7 0.6
14/09:30am 17.5 16.8 17.3 99 0.1 N 17 20 9 11 1014.5 1014.5 0.2
14/09:00am 17.5 16.2 17.3 99 0.1 N 20 22 11 12 1014.3 1014.3 1.8
14/08:30am 17.4 16.3 17.2 99 0.1 N 19 22 10 12 1014.0 1014.0 1.6
14/08:00am 17.4 16.3 17.2 99 0.1 N 19 20 10 11 1013.8 1013.8 1.2
14/07:30am 17.5 15.8 17.3 99 0.1 N 22 24 12 13 1013.6 1013.6 1.0
14/07:00am 17.4 16.3 17.2 99 0.1 N 19 22 10 12 1013.3 1013.3 0.8
14/06:30am 17.5 17.9 17.3 99 0.1 N 11 17 6 9 1013.2 1013.2 0.6
14/06:00am 17.3 16.5 17.0 98 0.2 N 17 20 9 11 1012.8 1012.8 0.2
14/05:30am 17.5 17.1 17.2 98 0.2 N 15 20 8 11 1012.6 1012.6 0.0
14/05:00am 17.3 15.9 17.0 98 0.2 N 20 22 11 12 1012.0 1012.0 0.0
14/04:30am 17.5 15.8 17.2 98 0.2 N 22 24 12 13 1011.9 1011.9 0.0
14/04:00am 17.8 16.5 17.3 97 0.3 NNE 20 24 11 13 1011.6 1011.6 0.0
14/03:30am 17.8 17.1 17.3 97 0.3 NE 17 19 9 10 1012.1 1012.1 0.0
14/03:00am 17.8 19.0 17.3 97 0.3 NNE 7 11 4 6 1012.6 1012.6 0.0
14/02:30am 17.5 17.4 17.0 97 0.3 N 13 13 7 7 1012.9 1012.9 0.0
14/02:00am 17.6 15.9 17.1 97 0.3 N 22 28 12 15 1013.2 1013.2 0.0
14/01:30am 17.8 16.1 17.2 96 0.4 N 22 24 12 13 1013.4 1013.4 0.0
14/01:00am 17.7 15.2 17.1 96 0.4 N 26 30 14 16 1013.5 1013.5 0.0
14/12:30am 17.6 15.7 16.8 95 0.5 N 22 26 12 14 1013.8 1013.8 0.0
14/12:00am 17.7 16.4 16.9 95 0.5 N 19 22 10 12 1014.2 1014.2 0.0
 
Date/Time
EDT
Temp
°C
App
Temp
°C
Dew
Point
°C
Rel
Hum
%
Delta-T
°C
Wind Press
QNH
hPa
Press
MSL
hPa
Rain since
9am
mm
Dir  Spd
km/h
Gust
km/h
Spd
kts
Gust
kts
13/11:30pm 18.0 14.8 17.2 95 0.5 NNE 30 32 16 17 1014.0 1014.0 0.0
13/11:00pm 17.8 14.0 16.8 94 0.6 N 32 33 17 18 1014.1 1014.1 0.0
13/10:30pm 17.8 14.8 16.8 94 0.6 N 28 30 15 16 1014.4 1014.4 0.0
13/10:00pm 17.8 14.0 16.8 94 0.6 N 32 33 17 18 1014.6 1014.6 0.0
13/09:30pm 17.8 15.5 16.7 93 0.7 N 24 28 13 15 1014.7 1014.7 0.0

Other Formats:

Comma delimited format used in spreadsheet applications
http://www.bom.gov.au/fwo/IDN60801/IDN60801.94934.axf

JavaScript Object Notation format (JSON) in row-major order
http://www.bom.gov.au/fwo/IDN60801/IDN60801.94934.json